Molt, MT (59057)

10:39 AM MST on February 08, 2016 (GMT -0700)
Billings Flying Mustangs | | Change Station
CLOSE
Current Station
Personal Weather Station
Location: Billings, MT
Elevation: 3504 ft
Nearby Weather Stations

Elev 3504 ft 45.79 °N, 108.73 °W | Updated 27 seconds ago

Partly Cloudy
Partly Cloudy
44.6 °F
Feels Like 38 °F
N
12.6
Wind Variable Wind from SSW
Gusts 13.4 mph

Today
High -- | Low -- °F
--% Chance of Precip.
Yesterday
High -- | Low -- °F
Precip. -- in
Pressure 30.50 in
Visibility 10.0 miles
Clouds Few 8500 ft
Scattered Clouds 20000 ft
Windchill 38 °F
Dew Point 21 °F
Humidity 40%
Rainfall 0.00 in
Snow Depth Not available.
7:28 AM 5:30 PM
New Moon, 0% visible
METAR KBIL 081653Z 22013KT 10SM FEW085 SCT200 02/M08 A3042 RMK AO2 SLP328 ACSL NE-SW T00221083
Pressure 30.50 in
Visibility 10.0 miles
Clouds Few 8500 ft
Scattered Clouds 20000 ft
Windchill 38 °F
Dew Point 21 °F
Humidity 40%
Rainfall 0.00 in
Snow Depth Not available.
7:28 AM 5:30 PM
New Moon, 0% visible
METAR KBIL 081653Z 22013KT 10SM FEW085 SCT200 02/M08 A3042 RMK AO2 SLP328 ACSL NE-SW T00221083

10-Day Weather Forecast

Almanac

Astronomy

Feb. 08, 2016 Rise Set
Actual Time
Civil Twilight
Nautical Twilight
Astronomical Twilight
Moon
Length of Visible Light
Length of Day
Tomorrow will be .
, % of the Moon is Illuminated

Today's Extremes

State Highs State Lows

Community

WunderPhotos

Upload Photos

1,891,473 photos uploaded!

WunderBlog® & News

Nearby

Air Quality

  Air Quality AQ Index Pollutant
Not available.

Snow Depth

Station Depth Elevation

Earthquake Activity

City Distance Mag. Time & Date
Minimum magnitude displayed is 2.5.

Coastal Water Temperatures

Place Temperature

Stations

Nearby Weather Stations

Station Location Temp. Windchill Dew Point Humidity Wind Precip. Elev Updated Type
                   

Watches & Warnings

There are currently no watches in effect.